createdAt,value
2022-08-12T00:00:07.107Z,18.27
2022-08-12T00:05:06.470Z,18.20
2022-08-12T00:10:06.451Z,18.08
2022-08-12T00:15:06.361Z,18.02
2022-08-12T00:20:06.304Z,17.93
2022-08-12T00:25:06.229Z,17.92
2022-08-12T00:30:06.260Z,17.87
2022-08-12T00:35:15.053Z,17.86
2022-08-12T00:40:11.824Z,17.75
2022-08-12T00:45:07.046Z,17.66
2022-08-12T00:50:05.983Z,17.58
2022-08-12T00:55:05.935Z,17.54
2022-08-12T01:00:06.013Z,17.46
2022-08-12T01:05:05.881Z,17.38
2022-08-12T01:10:05.799Z,17.33
2022-08-12T01:15:05.667Z,17.28
2022-08-12T01:20:05.680Z,17.18
2022-08-12T01:25:05.596Z,17.11
2022-08-12T01:30:05.541Z,17.07
2022-08-12T01:35:05.446Z,17.01
2022-08-12T01:40:35.836Z,16.98
2022-08-12T01:45:06.355Z,16.91
2022-08-12T01:50:05.301Z,16.83
2022-08-12T01:55:05.234Z,16.78
2022-08-12T02:00:05.250Z,16.78
2022-08-12T02:05:05.169Z,16.70
2022-08-12T02:10:05.104Z,16.61
2022-08-12T02:15:05.129Z,16.56
2022-08-12T02:20:04.969Z,16.48
2022-08-12T02:25:04.905Z,16.43
2022-08-12T02:30:04.868Z,16.41
2022-08-12T02:35:04.797Z,16.35
2022-08-12T02:40:04.831Z,16.30
2022-08-12T02:45:04.676Z,16.25
2022-08-12T02:50:04.668Z,16.21
2022-08-12T02:55:04.599Z,16.14
2022-08-12T03:00:04.615Z,16.07
2022-08-12T03:05:04.579Z,16.00
2022-08-12T03:10:06.921Z,15.93
2022-08-12T03:15:04.365Z,15.93
2022-08-12T03:20:08.639Z,15.90
2022-08-12T03:25:05.256Z,15.90
2022-08-12T03:30:04.284Z,15.83
2022-08-12T03:35:04.180Z,15.74
2022-08-12T03:40:04.191Z,15.69
2022-08-12T03:45:04.134Z,15.65
2022-08-12T03:50:04.065Z,15.62
2022-08-12T03:55:03.913Z,15.60
2022-08-12T04:00:03.851Z,15.57
2022-08-12T04:05:03.815Z,15.51
2022-08-12T04:10:03.757Z,15.47
2022-08-12T04:15:03.726Z,15.44
2022-08-12T04:20:03.676Z,15.44
2022-08-12T04:25:03.594Z,15.38
2022-08-12T04:30:21.458Z,15.34
2022-08-12T04:35:04.497Z,15.34
2022-08-12T04:40:03.501Z,15.36
2022-08-12T04:45:03.376Z,15.44
2022-08-12T04:50:03.317Z,15.51
2022-08-12T04:55:04.272Z,15.59
2022-08-12T05:00:03.194Z,15.74
2022-08-12T05:05:03.185Z,15.89
2022-08-12T05:10:03.137Z,16.01
2022-08-12T05:15:03.228Z,16.14
2022-08-12T05:20:04.038Z,16.31
2022-08-12T05:25:03.051Z,16.52
2022-08-12T05:30:07.787Z,16.68
2022-08-12T05:35:03.975Z,16.93
2022-08-12T05:40:06.876Z,17.18
2022-08-12T05:45:04.024Z,17.44
2022-08-12T05:50:02.747Z,17.81
2022-08-12T05:55:02.823Z,18.11
2022-08-12T06:00:03.668Z,18.39
2022-08-12T06:05:02.900Z,18.75
2022-08-12T06:10:02.629Z,19.07
2022-08-12T06:15:02.527Z,19.33
2022-08-12T06:20:22.810Z,19.73
2022-08-12T06:25:03.468Z,20.11
2022-08-12T06:30:09.071Z,20.43
2022-08-12T06:36:13.515Z,20.98
2022-08-12T06:41:14.457Z,21.35
2022-08-12T06:46:13.405Z,21.82
2022-08-12T06:51:13.345Z,22.25
2022-08-12T06:56:13.288Z,22.62
2022-08-12T07:01:13.311Z,22.98
2022-08-12T07:06:13.201Z,23.38
2022-08-12T07:11:13.239Z,23.80
2022-08-12T07:16:13.131Z,24.30
2022-08-12T07:21:13.027Z,24.81
2022-08-12T07:26:12.990Z,25.30
2022-08-12T07:31:12.931Z,25.82
2022-08-12T07:36:12.894Z,26.43
2022-08-12T07:41:15.562Z,26.87
2022-08-12T07:46:12.780Z,27.29
2022-08-12T07:51:12.717Z,27.72
2022-08-12T07:56:13.681Z,28.04
2022-08-12T08:01:12.691Z,28.21
2022-08-12T08:06:18.996Z,28.52
2022-08-12T08:11:13.556Z,28.93
2022-08-12T08:16:12.494Z,29.26
2022-08-12T08:21:12.418Z,29.42
2022-08-12T08:26:12.372Z,29.52
2022-08-12T08:31:12.323Z,29.49
2022-08-12T08:36:13.429Z,30.04
2022-08-12T08:41:13.238Z,29.89
2022-08-12T08:46:13.188Z,29.49
2022-08-12T08:51:12.148Z,29.63
2022-08-12T08:56:12.109Z,30.24
2022-08-12T09:01:12.092Z,30.27
2022-08-12T09:06:14.627Z,30.35
2022-08-12T09:11:12.073Z,30.08
2022-08-12T09:16:12.913Z,30.45
2022-08-12T09:21:12.834Z,30.94
2022-08-12T09:26:11.844Z,30.47
2022-08-12T09:32:03.727Z,31.12
2022-08-12T09:36:12.714Z,31.25
2022-08-12T09:42:33.198Z,31.14
2022-08-12T09:46:21.501Z,31.14
2022-08-12T09:51:22.208Z,31.34
2022-08-12T09:57:01.130Z,30.95
2022-08-12T10:01:15.218Z,30.97
2022-08-12T10:06:26.487Z,31.13
2022-08-12T10:11:20.523Z,31.04
2022-08-12T10:16:22.029Z,31.13
2022-08-12T10:21:12.296Z,31.23
2022-08-12T10:26:37.787Z,31.20
2022-08-12T10:31:16.208Z,31.06
2022-08-12T10:36:11.183Z,31.80
2022-08-12T10:41:12.094Z,31.54
2022-08-12T10:46:13.807Z,31.31
2022-08-12T10:51:51.966Z,31.81
2022-08-12T10:56:11.996Z,31.66
2022-08-12T11:01:50.567Z,31.68
2022-08-12T11:07:08.462Z,32.48
2022-08-12T11:11:13.250Z,32.69
2022-08-12T11:16:21.892Z,32.15
2022-08-12T11:21:15.921Z,32.06
2022-08-12T11:26:10.768Z,32.85
2022-08-12T11:31:13.991Z,32.63
2022-08-12T11:36:17.513Z,32.62
2022-08-12T11:41:10.635Z,33.09
2022-08-12T11:46:10.545Z,32.87
2022-08-12T11:51:11.493Z,32.89
2022-08-12T11:56:11.324Z,33.04
2022-08-12T12:02:02.773Z,32.60
2022-08-12T12:06:11.356Z,33.14
2022-08-12T12:11:10.341Z,33.12
2022-08-12T12:16:11.220Z,32.97
2022-08-12T12:21:10.255Z,32.97
2022-08-12T12:26:34.829Z,33.09
2022-08-12T12:31:14.966Z,33.31
2022-08-12T12:42:57.868Z,33.04
2022-08-12T12:47:28.695Z,33.29
2022-08-12T12:52:19.841Z,32.69
2022-08-12T12:57:05.773Z,32.96
2022-08-12T13:02:06.212Z,33.18
2022-08-12T13:07:05.880Z,33.87
2022-08-12T13:12:04.583Z,33.59
2022-08-12T13:17:06.223Z,33.57
2022-08-12T13:22:04.538Z,33.03
2022-08-12T13:27:04.474Z,33.01
2022-08-12T13:32:19.449Z,33.32
2022-08-12T13:37:09.998Z,33.63
2022-08-12T13:42:05.398Z,32.65
2022-08-12T13:47:18.462Z,32.43
2022-08-12T13:52:05.341Z,32.77
2022-08-12T13:57:04.233Z,33.11
2022-08-12T14:02:05.198Z,32.97
2022-08-12T14:07:04.185Z,32.96
2022-08-12T14:12:05.180Z,32.99
2022-08-12T14:17:05.525Z,33.04
2022-08-12T14:22:04.782Z,32.28
2022-08-12T14:27:08.793Z,32.35
2022-08-12T14:32:04.901Z,32.21
2022-08-12T14:37:03.918Z,32.00
2022-08-12T14:42:06.057Z,32.47
2022-08-12T14:47:07.515Z,32.56
2022-08-12T14:52:57.764Z,32.75
2022-08-12T14:57:19.422Z,33.01
2022-08-12T15:02:04.890Z,32.99
2022-08-12T15:07:07.683Z,32.96
2022-08-12T15:12:04.719Z,32.29
2022-08-12T15:17:03.749Z,31.78
2022-08-12T15:22:38.834Z,31.29
2022-08-12T15:27:09.432Z,31.29
2022-08-12T15:32:08.988Z,31.04
2022-08-12T15:37:04.273Z,31.14
2022-08-12T15:42:04.297Z,30.88
2022-08-12T15:47:03.424Z,30.72
2022-08-12T15:52:05.127Z,30.62
2022-08-12T15:57:03.319Z,30.43
2022-08-12T16:02:03.224Z,30.45
2022-08-12T16:07:06.123Z,30.37
2022-08-12T16:12:03.985Z,30.29
2022-08-12T16:17:02.901Z,30.38
2022-08-12T16:22:02.914Z,30.26
2022-08-12T16:27:02.811Z,30.10
2022-08-12T16:32:02.850Z,30.07
2022-08-12T16:37:03.107Z,30.00
2022-08-12T16:42:02.634Z,30.01
2022-08-12T16:47:03.199Z,29.80
2022-08-12T16:52:02.509Z,29.65
2022-08-12T16:57:05.752Z,29.68
2022-08-12T17:02:02.410Z,29.71
2022-08-12T17:07:02.382Z,29.53
2022-08-12T17:12:02.460Z,29.36
2022-08-12T17:17:04.431Z,29.33
2022-08-12T17:22:02.743Z,29.28
2022-08-12T17:27:02.213Z,29.14
2022-08-12T17:32:03.096Z,29.23
2022-08-12T17:37:05.519Z,29.08
2022-08-12T17:42:02.015Z,28.96
2022-08-12T17:47:03.037Z,28.93
2022-08-12T17:52:02.614Z,28.71
2022-08-12T17:57:01.836Z,28.68
2022-08-12T18:02:01.800Z,28.68
2022-08-12T18:07:01.730Z,28.62
2022-08-12T18:12:05.863Z,28.41
2022-08-12T18:17:02.701Z,28.27
2022-08-12T18:22:03.065Z,28.03
2022-08-12T18:27:01.512Z,27.78
2022-08-12T18:32:09.106Z,27.54
2022-08-12T18:38:12.750Z,27.36
2022-08-12T18:43:15.235Z,27.19
2022-08-12T18:48:12.712Z,27.13
2022-08-12T18:54:04.847Z,27.06
2022-08-12T18:58:20.576Z,26.92
2022-08-12T19:03:38.934Z,26.75
2022-08-12T19:08:13.450Z,26.47
2022-08-12T19:13:18.580Z,26.13
2022-08-12T19:18:14.332Z,25.83
2022-08-12T19:23:16.447Z,25.58
2022-08-12T19:28:13.238Z,25.30
2022-08-12T19:33:12.164Z,25.05
2022-08-12T19:38:12.144Z,24.80
2022-08-12T19:43:19.062Z,24.64
2022-08-12T19:48:16.896Z,24.43
2022-08-12T19:53:12.019Z,24.22
2022-08-12T19:58:18.143Z,24.02
2022-08-12T20:03:40.462Z,23.91
2022-08-12T20:08:12.876Z,23.72
2022-08-12T20:13:18.531Z,23.53
2022-08-12T20:18:19.159Z,23.35
2022-08-12T20:23:12.708Z,23.22
2022-08-12T20:28:12.752Z,23.10
2022-08-12T20:33:18.406Z,22.95
2022-08-12T20:38:27.429Z,22.79
2022-08-12T20:43:14.163Z,22.65
2022-08-12T20:48:11.401Z,22.52
2022-08-12T20:53:14.030Z,22.42
2022-08-12T20:58:12.291Z,22.27
2022-08-12T21:03:11.217Z,22.14
2022-08-12T21:08:11.905Z,22.03
2022-08-12T21:13:20.663Z,21.91
2022-08-12T21:18:29.000Z,21.67
2022-08-12T21:23:12.119Z,21.54
2022-08-12T21:28:11.067Z,21.44
2022-08-12T21:33:14.561Z,21.42
2022-08-12T21:38:10.864Z,21.35
2022-08-12T21:43:10.936Z,21.27
2022-08-12T21:48:11.818Z,21.17
2022-08-12T21:53:12.766Z,21.03
2022-08-12T21:58:10.719Z,20.92
2022-08-12T22:03:10.539Z,20.84
2022-08-12T22:08:10.489Z,20.70
2022-08-12T22:14:02.275Z,20.67
2022-08-12T22:18:11.376Z,20.64
2022-08-12T22:23:21.565Z,20.67
2022-08-12T22:28:11.270Z,20.72
2022-08-12T22:33:15.643Z,20.70
2022-08-12T22:38:11.280Z,20.66
2022-08-12T22:43:14.584Z,20.69
2022-08-12T22:48:11.147Z,20.72
2022-08-12T22:53:10.002Z,20.85
2022-08-12T22:58:09.982Z,20.84
2022-08-12T23:03:47.069Z,20.85
2022-08-12T23:08:13.721Z,21.01
2022-08-12T23:13:10.859Z,21.16
2022-08-12T23:18:09.869Z,21.34
2022-08-12T23:23:10.089Z,21.52
2022-08-12T23:28:30.115Z,21.68
2022-08-12T23:33:13.611Z,21.88
2022-08-12T23:38:10.504Z,22.12
2022-08-12T23:43:12.368Z,22.40
2022-08-12T23:48:09.380Z,22.33
2022-08-12T23:53:14.081Z,22.22
2022-08-12T23:58:21.018Z,22.40
